Time;durP1;ratioP1;P1;durP2;ratioP2;P2;SDS_P1;SDS_P2;PMS_P1;PMS_P2;Temp;Humidity;BMP_temperature;BMP_pressure;BME280_temperature;BME280_humidity;BME280_pressure;Samples;Min_cycle;Max_cycle;Signal;HPM_P1;HPM_P2
2023/01/28 00:02:07;;;;;;;8.37;6.53;;;1.30;99.90;;;;;;5014409;28;20198;-71
2023/01/28 00:04:33;;;;;;;8.87;7.47;;;1.30;99.90;;;;;;5012225;28;20177;-71
2023/01/28 00:06:59;;;;;;;12.90;8.03;;;1.30;99.90;;;;;;5027301;28;20186;-71
2023/01/28 00:09:24;;;;;;;10.07;7.77;;;1.40;99.90;;;;;;5011797;28;20199;-71
2023/01/28 00:11:50;;;;;;;10.43;7.60;;;1.40;99.90;;;;;;5011271;28;20199;-71
2023/01/28 00:14:15;;;;;;;10.30;6.43;;;1.30;99.90;;;;;;5013864;28;20175;-70
2023/01/28 00:16:41;;;;;;;7.47;6.47;;;1.30;99.90;;;;;;5012863;28;20238;-71
2023/01/28 00:19:07;;;;;;;9.27;7.13;;;1.30;99.90;;;;;;5021485;28;20652;-72
2023/01/28 00:21:33;;;;;;;8.83;6.83;;;1.30;99.90;;;;;;5019134;28;20288;-71
2023/01/28 00:23:58;;;;;;;9.17;6.90;;;1.30;99.90;;;;;;5020261;28;20178;-70
2023/01/28 00:26:24;;;;;;;8.43;7.13;;;1.30;99.90;;;;;;5021838;28;20183;-71
2023/01/28 00:28:49;;;;;;;8.60;6.67;;;1.30;99.90;;;;;;5016646;28;20649;-71
2023/01/28 00:31:21;;;;;;;8.70;6.37;;;1.30;99.90;;;;;;5022941;28;20633;-71
2023/01/28 00:33:48;;;;;;;9.77;7.87;;;1.30;99.90;;;;;;5022027;28;20624;-71
2023/01/28 00:36:15;;;;;;;8.83;7.07;;;1.30;99.90;;;;;;5018433;28;20544;-70
2023/01/28 00:38:41;;;;;;;6.53;5.53;;;1.30;99.90;;;;;;5021092;28;20468;-71
2023/01/28 00:41:12;;;;;;;8.87;6.53;;;1.20;99.90;;;;;;5020257;28;20519;-72
2023/01/28 00:43:38;;;;;;;8.00;6.70;;;1.30;99.90;;;;;;5013826;28;20477;-71
2023/01/28 00:46:06;;;;;;;8.30;6.80;;;1.30;99.90;;;;;;5025465;28;20429;-71
2023/01/28 00:48:35;;;;;;;10.73;7.30;;;1.30;99.90;;;;;;5019932;28;20465;-71
2023/01/28 00:51:00;;;;;;;8.30;6.20;;;1.30;99.90;;;;;;5022473;28;20499;-70
2023/01/28 00:53:26;;;;;;;9.27;6.87;;;1.30;99.90;;;;;;5019361;28;20433;-71
2023/01/28 00:55:52;;;;;;;8.47;6.57;;;1.30;99.90;;;;;;5017249;28;20213;-71
2023/01/28 00:58:18;;;;;;;9.10;6.40;;;1.40;99.90;;;;;;5012634;28;20336;-71
2023/01/28 01:00:44;;;;;;;7.10;6.10;;;1.40;99.90;;;;;;5019051;28;20206;-70
2023/01/28 01:03:09;;;;;;;8.33;6.97;;;1.40;99.90;;;;;;5019479;28;20446;-71
2023/01/28 01:05:35;;;;;;;9.60;6.63;;;1.40;99.90;;;;;;5018469;28;20537;-70
2023/01/28 01:08:00;;;;;;;9.70;7.27;;;1.40;99.90;;;;;;5022867;28;20268;-70
2023/01/28 01:10:26;;;;;;;8.60;6.77;;;1.40;99.90;;;;;;5023773;28;20178;-70
2023/01/28 01:12:52;;;;;;;7.30;6.47;;;1.50;99.90;;;;;;5012589;28;20593;-70
2023/01/28 01:15:18;;;;;;;7.23;6.03;;;1.40;99.90;;;;;;5012241;28;20178;-71
2023/01/28 01:17:46;;;;;;;10.13;7.57;;;1.40;99.90;;;;;;5013724;28;20237;-71
2023/01/28 01:20:24;;;;;;;8.33;6.63;;;1.50;99.90;;;;;;5013155;28;20511;-72
2023/01/28 01:22:50;;;;;;;8.87;7.30;;;1.50;99.90;;;;;;5010257;28;20437;-70
2023/01/28 01:25:17;;;;;;;10.33;7.33;;;1.50;99.90;;;;;;5012166;28;20467;-71
2023/01/28 01:27:44;;;;;;;9.63;7.50;;;1.50;99.90;;;;;;5018162;28;20456;-71
2023/01/28 01:30:11;;;;;;;10.23;7.23;;;1.50;99.90;;;;;;5012125;28;20446;-71
2023/01/28 01:32:37;;;;;;;10.90;7.20;;;1.50;99.90;;;;;;5016329;28;20434;-71
2023/01/28 01:35:05;;;;;;;10.20;7.83;;;1.50;99.90;;;;;;5026179;28;20444;-71
2023/01/28 01:37:31;;;;;;;9.53;7.00;;;1.50;99.90;;;;;;5020701;28;20260;-70
2023/01/28 01:39:56;;;;;;;6.70;5.97;;;1.40;99.90;;;;;;5018810;28;20445;-71
2023/01/28 01:42:24;;;;;;;9.73;7.30;;;1.50;99.90;;;;;;5009166;28;20237;-70
2023/01/28 01:44:56;;;;;;;10.17;7.27;;;1.50;99.90;;;;;;5011434;28;20210;-70
2023/01/28 01:47:42;;;;;;;10.27;6.67;;;1.50;99.90;;;;;;5018328;28;20433;-71
2023/01/28 01:50:21;;;;;;;8.57;6.63;;;1.50;99.90;;;;;;5011824;28;20429;-70
2023/01/28 01:52:51;;;;;;;10.40;7.87;;;1.50;99.90;;;;;;5010545;28;20994;-71
2023/01/28 01:55:20;;;;;;;8.37;6.67;;;1.50;99.90;;;;;;5002161;28;20496;-71
2023/01/28 01:57:48;;;;;;;6.90;5.60;;;1.50;99.90;;;;;;5012509;28;20463;-71
2023/01/28 02:00:15;;;;;;;9.27;7.77;;;1.60;99.90;;;;;;5024058;28;20493;-71
2023/01/28 02:02:44;;;;;;;8.23;6.10;;;1.60;99.90;;;;;;5021128;28;20500;-71
2023/01/28 02:05:12;;;;;;;7.77;6.30;;;1.60;99.90;;;;;;5021900;28;20444;-71
2023/01/28 02:07:39;;;;;;;8.27;5.97;;;1.50;99.90;;;;;;5017929;28;20456;-71
2023/01/28 02:10:06;;;;;;;8.23;6.83;;;1.50;99.90;;;;;;5027742;28;20858;-71
2023/01/28 02:12:35;;;;;;;9.20;6.63;;;1.50;99.90;;;;;;5014593;28;20436;-71
2023/01/28 02:15:16;;;;;;;9.50;6.27;;;1.50;99.90;;;;;;5015571;28;20422;-72
2023/01/28 02:17:41;;;;;;;8.30;5.93;;;1.40;99.90;;;;;;5006278;28;20503;-72
2023/01/28 02:20:12;;;;;;;7.27;5.37;;;1.40;99.90;;;;;;5007478;28;20477;-72
2023/01/28 02:22:59;;;;;;;7.97;6.03;;;1.50;99.90;;;;;;5009912;28;20561;-72
2023/01/28 02:25:44;;;;;;;8.97;6.60;;;1.50;99.90;;;;;;5011375;28;20448;-71
2023/01/28 02:28:33;;;;;;;8.00;6.10;;;1.50;99.90;;;;;;5020189;28;20467;-72
2023/01/28 02:31:14;;;;;;;7.73;6.07;;;1.50;99.90;;;;;;5011324;28;20807;-71
2023/01/28 02:33:59;;;;;;;8.20;5.87;;;1.50;99.90;;;;;;5011548;28;20448;-71
2023/01/28 02:37:01;;;;;;;7.10;5.90;;;1.40;99.90;;;;;;5020122;28;20434;-71
2023/01/28 02:39:39;;;;;;;6.80;5.60;;;1.50;99.90;;;;;;4996422;28;20837;-71
2023/01/28 02:42:15;;;;;;;9.43;6.60;;;1.50;99.90;;;;;;5021965;28;20460;-70
2023/01/28 02:44:41;;;;;;;8.60;5.87;;;1.60;99.90;;;;;;5014558;28;20469;-71
2023/01/28 02:49:59;;;;;;;9.23;6.90;;;1.60;99.90;;;;;;5016475;28;20194;-71
2023/01/28 02:55:41;;;;;;;8.63;5.67;;;1.40;99.90;;;;;;5015263;28;20985;-71
2023/01/28 02:58:12;;;;;;;8.20;6.63;;;1.40;99.90;;;;;;5018776;28;20503;-71
2023/01/28 03:01:11;;;;;;;7.20;5.63;;;1.40;99.90;;;;;;5018790;28;20473;-71
2023/01/28 03:03:55;;;;;;;8.90;5.90;;;1.30;99.90;;;;;;5001612;28;20471;-71
2023/01/28 03:06:25;;;;;;;8.07;6.50;;;1.30;99.90;;;;;;5017602;28;20429;-70
2023/01/28 03:37:00;;;;;;;11.87;7.27;;;1.50;99.90;;;;;;5022285;28;20957;-69
2023/01/28 03:39:28;;;;;;;9.63;7.70;;;1.50;99.90;;;;;;5019451;28;20457;-69
2023/01/28 03:41:55;;;;;;;9.87;8.50;;;1.50;99.90;;;;;;5017871;28;20234;-72
2023/01/28 03:47:07;;;;;;;11.20;7.97;;;1.40;99.90;;;;;;5018450;28;20478;-69
2023/01/28 03:49:33;;;;;;;10.77;9.40;;;1.40;99.90;;;;;;5020791;28;20511;-71
2023/01/28 03:51:59;;;;;;;9.20;8.30;;;1.30;99.90;;;;;;5020165;28;20467;-71
2023/01/28 03:54:24;;;;;;;11.77;9.47;;;1.30;99.90;;;;;;5022283;28;20232;-72
2023/01/28 03:56:49;;;;;;;11.63;8.53;;;1.30;99.90;;;;;;5019739;28;20654;-72
2023/01/28 03:59:15;;;;;;;10.93;9.30;;;1.30;99.90;;;;;;5003860;28;20331;-71
2023/01/28 04:01:40;;;;;;;13.50;9.40;;;1.30;99.90;;;;;;5012198;28;20199;-71
2023/01/28 04:04:06;;;;;;;9.67;7.83;;;1.30;99.90;;;;;;5011063;28;20249;-72
2023/01/28 04:06:32;;;;;;;10.70;9.17;;;1.30;99.90;;;;;;5018446;28;20373;-71
2023/01/28 04:09:00;;;;;;;11.97;9.00;;;1.30;99.90;;;;;;5014051;28;20195;-72
2023/01/28 04:11:26;;;;;;;12.40;9.57;;;1.30;99.90;;;;;;5022684;28;20183;-71
2023/01/28 04:13:52;;;;;;;13.83;10.00;;;1.30;99.90;;;;;;5020122;28;20441;-72
2023/01/28 04:16:19;;;;;;;12.93;10.43;;;1.40;99.90;;;;;;5018106;28;20201;-71
2023/01/28 04:18:44;;;;;;;12.60;9.17;;;1.30;99.90;;;;;;5018590;28;20484;-69
2023/01/28 04:21:11;;;;;;;11.70;9.27;;;1.40;99.90;;;;;;4992172;28;20469;-69
2023/01/28 04:23:37;;;;;;;15.13;11.13;;;1.30;99.90;;;;;;5016321;28;20224;-69
2023/01/28 04:26:03;;;;;;;11.70;9.73;;;1.40;99.90;;;;;;5017654;28;20434;-72
2023/01/28 04:28:29;;;;;;;13.93;10.20;;;1.40;99.90;;;;;;5021580;28;20201;-72
2023/01/28 04:30:54;;;;;;;12.47;9.10;;;1.40;99.90;;;;;;5022194;28;20217;-71
2023/01/28 04:33:20;;;;;;;12.10;9.97;;;1.50;99.90;;;;;;5015017;28;20601;-71
2023/01/28 04:35:46;;;;;;;11.80;9.57;;;1.50;99.90;;;;;;5013790;28;20676;-72
2023/01/28 04:38:11;;;;;;;11.93;9.30;;;1.50;99.90;;;;;;5021211;28;20489;-72
2023/01/28 04:40:37;;;;;;;13.03;9.33;;;1.40;99.90;;;;;;5021875;28;20202;-72
2023/01/28 04:43:02;;;;;;;13.87;10.00;;;1.50;99.90;;;;;;5005094;28;20225;-71
2023/01/28 04:45:29;;;;;;;15.23;10.07;;;1.50;99.90;;;;;;5023640;28;20192;-72
2023/01/28 04:47:55;;;;;;;13.63;9.00;;;1.50;99.90;;;;;;5022682;28;20252;-71
2023/01/28 04:50:21;;;;;;;13.30;10.30;;;1.50;99.90;;;;;;5025713;28;20845;-71
2023/01/28 04:52:46;;;;;;;13.33;9.80;;;1.50;99.90;;;;;;5018174;28;20179;-71
2023/01/28 04:55:11;;;;;;;11.90;9.27;;;1.50;99.90;;;;;;5023732;28;20182;-71
2023/01/28 04:57:37;;;;;;;13.30;9.70;;;1.40;99.90;;;;;;5021871;28;20602;-71
2023/01/28 05:00:04;;;;;;;12.53;10.27;;;1.30;99.90;;;;;;5022055;28;20178;-71
2023/01/28 05:02:30;;;;;;;12.13;9.27;;;1.20;99.90;;;;;;5024819;28;20698;-71
2023/01/28 05:04:55;;;;;;;14.63;9.83;;;1.20;99.90;;;;;;5013167;28;20528;-72
2023/01/28 05:07:21;;;;;;;15.70;11.00;;;1.20;99.90;;;;;;5005699;28;20838;-71
2023/01/28 05:09:46;;;;;;;15.47;11.30;;;1.20;99.90;;;;;;5012594;28;20183;-72
2023/01/28 05:12:12;;;;;;;12.13;9.53;;;1.20;99.90;;;;;;5013391;28;20198;-71
2023/01/28 05:14:37;;;;;;;12.17;8.93;;;1.20;99.90;;;;;;5012507;28;20619;-71
2023/01/28 05:17:03;;;;;;;17.97;10.00;;;1.20;99.90;;;;;;5013262;28;20206;-71
2023/01/28 05:19:28;;;;;;;11.47;9.40;;;1.20;99.90;;;;;;5022648;28;20289;-71
2023/01/28 05:21:54;;;;;;;13.97;11.43;;;1.30;99.90;;;;;;5024847;28;20202;-71
2023/01/28 05:24:20;;;;;;;11.60;9.70;;;1.30;99.90;;;;;;5028784;28;20178;-71
2023/01/28 05:26:46;;;;;;;12.13;10.43;;;1.40;99.90;;;;;;5014882;28;20194;-72
2023/01/28 05:29:11;;;;;;;10.60;8.00;;;1.40;99.90;;;;;;5023036;28;20488;-71
2023/01/28 05:31:37;;;;;;;11.60;9.37;;;1.40;99.90;;;;;;5015035;28;20233;-71
2023/01/28 05:34:02;;;;;;;14.73;10.67;;;1.40;99.90;;;;;;5010645;28;20225;-71
2023/01/28 05:36:28;;;;;;;11.73;9.50;;;1.40;99.90;;;;;;5025466;28;20671;-71
2023/01/28 05:38:53;;;;;;;11.70;9.50;;;1.40;99.90;;;;;;5024669;28;20309;-72
2023/01/28 05:41:19;;;;;;;11.40;10.13;;;1.40;99.90;;;;;;5014611;28;20276;-71
2023/01/28 05:43:44;;;;;;;13.57;9.60;;;1.30;99.90;;;;;;5015433;28;20271;-71
2023/01/28 05:46:10;;;;;;;12.07;10.07;;;1.30;99.90;;;;;;5023087;28;20182;-72
2023/01/28 05:48:35;;;;;;;11.40;10.10;;;1.30;99.90;;;;;;5023786;28;20227;-72
2023/01/28 05:51:01;;;;;;;12.83;10.30;;;1.30;99.90;;;;;;5024245;28;20248;-71
2023/01/28 05:53:26;;;;;;;13.87;10.70;;;1.40;99.90;;;;;;5021855;28;20261;-71
2023/01/28 05:55:52;;;;;;;12.33;10.40;;;1.50;99.90;;;;;;5014740;28;20191;-71
2023/01/28 05:58:19;;;;;;;15.13;10.60;;;1.40;99.90;;;;;;5023970;28;20202;-72
2023/01/28 06:00:45;;;;;;;16.13;11.20;;;1.40;99.90;;;;;;5016000;28;21073;-72
2023/01/28 06:03:10;;;;;;;16.10;10.13;;;1.40;99.90;;;;;;5019026;28;20548;-72
2023/01/28 06:05:36;;;;;;;12.60;10.10;;;1.50;99.90;;;;;;5019839;28;20178;-72
2023/01/28 06:08:02;;;;;;;15.00;10.90;;;1.50;99.90;;;;;;5019041;28;20294;-71
2023/01/28 06:10:27;;;;;;;12.03;9.83;;;1.50;99.90;;;;;;5022563;28;20557;-71
2023/01/28 06:12:53;;;;;;;13.33;10.63;;;1.50;99.90;;;;;;5023808;28;20615;-71
2023/01/28 06:15:18;;;;;;;14.00;10.90;;;1.50;99.90;;;;;;5012866;28;20190;-71
2023/01/28 06:17:44;;;;;;;12.03;9.90;;;1.60;99.90;;;;;;5008045;28;20215;-73
2023/01/28 06:20:10;;;;;;;12.53;9.80;;;1.60;99.90;;;;;;5010576;28;20695;-71
2023/01/28 06:22:35;;;;;;;11.63;9.47;;;1.60;99.90;;;;;;5010708;28;20183;-71
2023/01/28 06:25:01;;;;;;;16.70;11.50;;;1.60;99.90;;;;;;5011622;28;20175;-72
2023/01/28 06:27:26;;;;;;;13.43;10.20;;;1.60;99.90;;;;;;5003734;28;20175;-72
2023/01/28 06:29:52;;;;;;;10.97;8.90;;;1.60;99.90;;;;;;5010754;28;20182;-71
2023/01/28 06:32:17;;;;;;;15.60;8.97;;;1.60;99.90;;;;;;5015153;28;20235;-71
2023/01/28 06:34:43;;;;;;;14.37;11.20;;;1.60;99.90;;;;;;5017421;28;20187;-72
2023/01/28 06:37:12;;;;;;;13.10;9.67;;;1.70;99.90;;;;;;5018691;28;20191;-71
2023/01/28 06:39:38;;;;;;;12.93;9.40;;;1.70;99.90;;;;;;5020688;28;20174;-71
2023/01/28 06:42:03;;;;;;;11.17;9.63;;;1.70;99.90;;;;;;5019683;28;20476;-72
2023/01/28 06:44:29;;;;;;;14.27;8.87;;;1.80;99.90;;;;;;5023740;28;20182;-71
2023/01/28 06:46:54;;;;;;;12.37;9.90;;;1.80;99.90;;;;;;5012435;28;20229;-72
2023/01/28 06:49:20;;;;;;;13.17;9.50;;;1.80;99.90;;;;;;5011792;28;20206;-71
2023/01/28 06:51:46;;;;;;;11.93;9.53;;;1.70;99.90;;;;;;5001819;28;20185;-71
2023/01/28 06:54:12;;;;;;;13.13;9.70;;;1.70;99.90;;;;;;5025133;28;20429;-70
2023/01/28 06:56:37;;;;;;;10.50;8.90;;;1.70;99.90;;;;;;5017696;28;20190;-71
2023/01/28 06:59:03;;;;;;;14.73;9.90;;;1.70;99.90;;;;;;5021370;28;20209;-71
2023/01/28 07:01:28;;;;;;;12.50;9.50;;;1.70;99.90;;;;;;5014486;28;20297;-71
2023/01/28 07:03:54;;;;;;;13.77;8.27;;;1.60;99.90;;;;;;5022160;28;20226;-71
2023/01/28 07:06:20;;;;;;;10.70;8.90;;;1.60;99.90;;;;;;5021609;28;20210;-71
2023/01/28 07:08:46;;;;;;;13.00;9.90;;;1.60;99.90;;;;;;5003254;28;20485;-71
2023/01/28 07:11:12;;;;;;;12.03;9.90;;;1.60;99.90;;;;;;5012928;28;20719;-71
2023/01/28 07:13:37;;;;;;;13.40;9.30;;;1.60;99.90;;;;;;5022629;28;20477;-71
2023/01/28 07:16:03;;;;;;;13.30;10.07;;;1.70;99.90;;;;;;5024716;28;20273;-71
2023/01/28 07:18:29;;;;;;;15.30;10.70;;;1.70;99.90;;;;;;5023175;28;20217;-71
2023/01/28 07:20:55;;;;;;;16.77;11.57;;;1.70;99.90;;;;;;5016033;28;20222;-71
2023/01/28 07:23:20;;;;;;;14.90;12.43;;;1.80;99.90;;;;;;5014770;28;20179;-71
2023/01/28 07:25:46;;;;;;;15.73;12.33;;;1.80;99.90;;;;;;5011646;28;20994;-71
2023/01/28 07:28:12;;;;;;;14.73;11.03;;;1.80;99.90;;;;;;5018309;28;20211;-70
2023/01/28 07:30:37;;;;;;;15.50;10.63;;;1.90;99.90;;;;;;5023662;28;20178;-71
2023/01/28 07:33:03;;;;;;;19.13;12.97;;;1.90;99.90;;;;;;5012755;28;20653;-71
2023/01/28 07:35:29;;;;;;;14.63;11.80;;;1.90;99.90;;;;;;5010670;28;20194;-71
2023/01/28 07:37:59;;;;;;;11.57;9.27;;;1.90;99.90;;;;;;5019334;28;20202;-71
2023/01/28 07:40:25;;;;;;;13.77;10.53;;;1.90;99.90;;;;;;5012063;28;20476;-71
2023/01/28 07:42:52;;;;;;;12.80;9.97;;;1.90;99.90;;;;;;5013627;28;20528;-71
2023/01/28 07:45:18;;;;;;;16.67;12.50;;;2.00;99.90;;;;;;4993469;28;20901;-71
2023/01/28 07:47:43;;;;;;;21.07;13.60;;;1.90;99.90;;;;;;5021007;28;20539;-71
2023/01/28 07:50:10;;;;;;;16.40;11.80;;;1.90;99.90;;;;;;5018842;28;20297;-71
2023/01/28 07:52:43;;;;;;;16.50;12.23;;;1.90;99.90;;;;;;5021702;28;20202;-71
2023/01/28 07:55:09;;;;;;;22.10;13.17;;;2.00;99.90;;;;;;5021195;28;20454;-71
2023/01/28 07:57:35;;;;;;;21.63;13.93;;;2.00;99.90;;;;;;5017568;28;20468;-71
2023/01/28 08:00:00;;;;;;;19.47;13.47;;;2.00;99.90;;;;;;5022781;28;20512;-71
2023/01/28 08:02:28;;;;;;;18.43;12.07;;;1.90;99.90;;;;;;5014965;28;20187;-71
2023/01/28 08:04:53;;;;;;;17.87;12.93;;;2.00;99.90;;;;;;5009293;28;20330;-70
2023/01/28 08:07:19;;;;;;;23.00;13.33;;;2.00;99.90;;;;;;5019115;28;20525;-70
2023/01/28 08:09:44;;;;;;;21.53;14.03;;;2.00;99.90;;;;;;5021974;28;20262;-71
2023/01/28 08:12:10;;;;;;;27.60;16.67;;;2.10;99.90;;;;;;5012817;28;20708;-70
2023/01/28 08:14:35;;;;;;;24.40;15.83;;;2.10;99.90;;;;;;5023243;28;20194;-71
2023/01/28 08:17:01;;;;;;;21.50;14.57;;;2.10;99.90;;;;;;5018113;28;20620;-70
2023/01/28 08:19:26;;;;;;;21.90;15.00;;;2.10;99.90;;;;;;5022552;28;20195;-70
2023/01/28 08:21:52;;;;;;;17.80;12.23;;;2.00;99.90;;;;;;5015633;28;20210;-71
2023/01/28 08:24:17;;;;;;;27.60;13.70;;;2.00;99.90;;;;;;5017204;28;20641;-70
2023/01/28 08:26:43;;;;;;;18.87;11.70;;;2.10;99.90;;;;;;5012748;28;20183;-70
2023/01/28 08:29:09;;;;;;;20.23;13.30;;;2.00;99.90;;;;;;5004908;28;20213;-70
2023/01/28 08:31:34;;;;;;;24.00;14.87;;;2.10;99.90;;;;;;5011702;28;20183;-71
2023/01/28 08:34:00;;;;;;;20.33;12.83;;;2.10;99.90;;;;;;5022468;28;20182;-71
2023/01/28 08:36:25;;;;;;;18.23;13.00;;;2.20;99.90;;;;;;5017445;28;20181;-71
2023/01/28 08:38:54;;;;;;;19.70;13.10;;;2.30;99.90;;;;;;5025162;28;20206;-71
2023/01/28 08:41:23;;;;;;;21.13;13.47;;;2.30;99.90;;;;;;5010288;28;20393;-71
2023/01/28 08:43:48;;;;;;;27.10;14.07;;;2.20;99.90;;;;;;5010392;28;20883;-71
2023/01/28 08:46:15;;;;;;;21.00;13.23;;;2.30;99.90;;;;;;5011690;28;20445;-71
2023/01/28 08:48:40;;;;;;;23.70;13.27;;;2.20;99.90;;;;;;5014637;28;20202;-71
2023/01/28 08:51:06;;;;;;;27.27;13.27;;;2.30;99.90;;;;;;5015159;28;20434;-71
2023/01/28 08:53:31;;;;;;;24.97;14.10;;;2.30;99.90;;;;;;5013975;28;20206;-70
2023/01/28 08:55:57;;;;;;;14.73;12.00;;;2.30;99.90;;;;;;5013993;28;20192;-71
2023/01/28 08:58:23;;;;;;;19.90;12.70;;;2.40;99.90;;;;;;5014461;28;20684;-70
2023/01/28 09:00:49;;;;;;;21.67;14.70;;;2.50;99.90;;;;;;5015074;28;20541;-71
2023/01/28 09:03:15;;;;;;;20.57;12.00;;;2.50;99.90;;;;;;5015092;28;20183;-71
2023/01/28 09:05:41;;;;;;;23.60;15.17;;;2.50;99.90;;;;;;5014496;28;20861;-71
2023/01/28 09:08:14;;;;;;;21.70;14.00;;;2.50;99.90;;;;;;5009967;28;20489;-70
2023/01/28 09:10:41;;;;;;;26.90;15.60;;;2.60;99.90;;;;;;5014744;28;20660;-71
2023/01/28 09:13:13;;;;;;;33.13;14.97;;;2.70;99.90;;;;;;5001403;28;20423;-71
2023/01/28 09:15:39;;;;;;;25.97;15.03;;;2.80;99.90;;;;;;5012944;28;20485;-71
2023/01/28 09:18:05;;;;;;;15.90;12.17;;;3.00;99.90;;;;;;5024132;28;20507;-68
2023/01/28 09:20:32;;;;;;;17.90;13.10;;;3.10;99.90;;;;;;5016479;28;20465;-70
2023/01/28 09:22:58;;;;;;;17.03;12.27;;;3.20;99.90;;;;;;5012311;28;20477;-70
2023/01/28 09:25:24;;;;;;;17.80;12.03;;;3.40;99.90;;;;;;5011565;28;20497;-69
2023/01/28 09:27:49;;;;;;;14.80;11.73;;;3.30;99.90;;;;;;5007428;28;21027;-70
2023/01/28 09:30:15;;;;;;;18.63;12.70;;;3.30;99.90;;;;;;5005391;28;20500;-70
2023/01/28 09:32:41;;;;;;;16.93;13.10;;;3.40;99.90;;;;;;5011544;28;20188;-70
2023/01/28 09:35:07;;;;;;;19.00;13.50;;;3.50;99.90;;;;;;5013408;28;20216;-69
2023/01/28 09:37:33;;;;;;;15.47;12.33;;;3.70;99.90;;;;;;5019978;28;20205;-70
2023/01/28 09:39:58;;;;;;;24.37;14.30;;;3.70;99.90;;;;;;5018413;28;20438;-71
2023/01/28 09:42:45;;;;;;;21.37;13.47;;;3.60;99.90;;;;;;5021235;28;20207;-70
2023/01/28 09:45:22;;;;;;;22.00;14.60;;;3.40;99.90;;;;;;5011388;28;20645;-71
2023/01/28 09:47:56;;;;;;;14.90;12.07;;;3.60;99.90;;;;;;5011146;28;20514;-70
2023/01/28 09:50:34;;;;;;;19.77;14.00;;;3.50;99.90;;;;;;5015956;28;20432;-71
2023/01/28 09:53:30;;;;;;;18.50;13.73;;;3.50;99.90;;;;;;5018071;28;20540;-72
2023/01/28 09:56:00;;;;;;;15.13;11.30;;;3.50;99.90;;;;;;5021901;28;20817;-69
2023/01/28 09:58:26;;;;;;;19.03;13.27;;;3.50;99.90;;;;;;5017548;28;20827;-71
2023/01/28 10:01:07;;;;;;;13.60;12.17;;;3.50;99.90;;;;;;5013059;28;20473;-72
2023/01/28 10:03:56;;;;;;;14.60;11.17;;;3.50;99.90;;;;;;5009924;28;20171;-69
2023/01/28 10:06:39;;;;;;;16.70;12.73;;;3.60;99.90;;;;;;5012345;28;20430;-69
2023/01/28 10:09:26;;;;;;;16.40;11.70;;;3.80;99.90;;;;;;5023099;28;20479;-71
2023/01/28 10:12:22;;;;;;;19.73;12.77;;;4.00;99.90;;;;;;5010973;28;20426;-70
2023/01/28 10:15:16;;;;;;;22.60;12.70;;;3.90;99.90;;;;;;5006814;28;20917;-71
2023/01/28 10:17:46;;;;;;;17.50;12.67;;;3.80;99.90;;;;;;5018807;28;20473;-71
2023/01/28 10:20:12;;;;;;;17.63;13.87;;;3.80;99.90;;;;;;5014587;28;20899;-71
2023/01/28 10:22:54;;;;;;;17.50;12.80;;;3.80;99.90;;;;;;5024135;28;20448;-71
2023/01/28 10:25:30;;;;;;;19.23;12.73;;;3.60;99.90;;;;;;5015707;28;20442;-71
2023/01/28 10:27:55;;;;;;;17.57;13.10;;;3.50;99.90;;;;;;5012219;28;21020;-71
2023/01/28 10:30:24;;;;;;;15.50;11.50;;;3.50;99.90;;;;;;5013500;28;20432;-71
2023/01/28 10:33:03;;;;;;;16.03;12.33;;;3.40;99.90;;;;;;5016745;28;20202;-70
2023/01/28 10:35:36;;;;;;;19.03;13.73;;;3.20;99.90;;;;;;5013240;28;20978;-71
2023/01/28 10:38:06;;;;;;;14.97;11.93;;;3.20;99.90;;;;;;4996750;28;22338;-71
2023/01/28 10:40:33;;;;;;;16.43;12.27;;;3.10;99.90;;;;;;5014348;28;20493;-71
2023/01/28 10:42:59;;;;;;;15.93;12.43;;;3.10;99.90;;;;;;5012120;28;20457;-69
2023/01/28 10:45:28;;;;;;;16.67;12.47;;;3.10;99.90;;;;;;5012959;28;20429;-70
2023/01/28 10:48:07;;;;;;;15.70;12.93;;;3.00;99.90;;;;;;5012921;28;20187;-70
2023/01/28 10:50:34;;;;;;;20.27;14.30;;;2.90;99.90;;;;;;5012607;28;20413;-70
2023/01/28 10:53:02;;;;;;;18.30;14.30;;;2.80;99.90;;;;;;5013119;28;20772;-69
2023/01/28 10:55:51;;;;;;;15.73;12.63;;;2.80;99.90;;;;;;5013039;28;20426;-69
2023/01/28 10:58:23;;;;;;;16.10;12.80;;;2.80;99.90;;;;;;5012316;28;20814;-71
2023/01/28 11:01:04;;;;;;;21.03;13.17;;;2.80;99.90;;;;;;5012885;28;20548;-70
2023/01/28 11:03:30;;;;;;;17.23;13.33;;;2.80;99.90;;;;;;5012968;28;20496;-71
2023/01/28 11:05:57;;;;;;;20.03;13.80;;;2.90;99.90;;;;;;5012807;28;20556;-70
2023/01/28 11:08:25;;;;;;;18.70;13.93;;;2.80;99.90;;;;;;5012226;28;20449;-71
2023/01/28 11:10:51;;;;;;;17.77;12.70;;;2.80;99.90;;;;;;5012760;28;20935;-70
2023/01/28 11:13:20;;;;;;;17.13;11.80;;;2.80;99.90;;;;;;5012696;28;20504;-70
2023/01/28 11:15:50;;;;;;;14.70;12.00;;;2.80;99.90;;;;;;5012766;28;20497;-69
2023/01/28 11:18:19;;;;;;;16.80;12.23;;;2.80;99.90;;;;;;5011973;28;20457;-69
2023/01/28 11:20:55;;;;;;;15.90;12.83;;;2.90;99.90;;;;;;5012494;28;20485;-71
2023/01/28 11:23:27;;;;;;;16.07;12.60;;;3.00;99.90;;;;;;5012778;28;20417;-69
2023/01/28 11:26:24;;;;;;;16.30;12.60;;;3.10;99.90;;;;;;5012653;28;20480;-70
2023/01/28 11:28:51;;;;;;;16.40;11.93;;;3.00;99.90;;;;;;5011961;28;20473;-70
2023/01/28 11:31:19;;;;;;;17.17;12.53;;;3.10;99.90;;;;;;5012501;28;20429;-70
2023/01/28 11:33:59;;;;;;;17.10;11.53;;;3.00;99.90;;;;;;5012528;28;20449;-70
2023/01/28 11:36:29;;;;;;;15.87;12.03;;;3.00;99.90;;;;;;5012451;28;20421;-70
2023/01/28 11:39:15;;;;;;;17.83;12.30;;;3.00;99.90;;;;;;5011786;28;20520;-69
2023/01/28 11:41:40;;;;;;;17.90;12.60;;;3.00;99.90;;;;;;5012297;28;20528;-70
2023/01/28 11:44:19;;;;;;;18.97;12.50;;;3.00;99.90;;;;;;5012364;28;20529;-69
2023/01/28 11:47:15;;;;;;;17.83;12.13;;;3.00;99.90;;;;;;5012359;28;20237;-70
2023/01/28 11:50:06;;;;;;;13.23;11.93;;;3.00;99.90;;;;;;5011558;28;20437;-71
2023/01/28 11:52:49;;;;;;;17.87;11.90;;;3.00;99.90;;;;;;5012108;28;20508;-70
2023/01/28 11:55:39;;;;;;;15.40;11.40;;;3.10;99.90;;;;;;5011433;28;20501;-71
2023/01/28 11:58:35;;;;;;;17.70;12.70;;;3.10;99.90;;;;;;5011953;28;20472;-70
2023/01/28 12:01:20;;;;;;;16.40;14.30;;;3.00;99.90;;;;;;5012139;28;20983;-70
2023/01/28 12:04:08;;;;;;;15.67;12.87;;;3.10;99.90;;;;;;5012234;28;21124;-71
2023/01/28 12:06:39;;;;;;;16.13;12.73;;;3.10;99.90;;;;;;5012127;28;20464;-70
2023/01/28 12:09:10;;;;;;;19.30;13.63;;;3.10;99.90;;;;;;5008543;28;21029;-71
2023/01/28 12:12:11;;;;;;;16.90;12.53;;;3.10;99.90;;;;;;5008754;28;20450;-71
2023/01/28 12:15:18;;;;;;;18.57;14.00;;;3.10;99.90;;;;;;5004914;28;20430;-70
2023/01/28 12:17:58;;;;;;;20.47;14.67;;;3.10;99.90;;;;;;4962185;28;20472;-69
2023/01/28 12:21:07;;;;;;;20.30;12.60;;;3.10;99.90;;;;;;4991963;28;20418;-67
2023/01/28 12:23:38;;;;;;;19.27;13.57;;;3.20;99.90;;;;;;4965852;28;20493;-68
2023/01/28 12:26:56;;;;;;;13.90;10.77;;;3.30;99.90;;;;;;4992725;28;20416;-69
2023/01/28 12:29:50;;;;;;;16.50;10.63;;;3.00;99.90;;;;;;4948593;28;20473;-69
2023/01/28 12:32:22;;;;;;;15.13;11.77;;;3.00;99.90;;;;;;4990940;28;20423;-70
2023/01/28 12:35:15;;;;;;;15.77;12.03;;;3.00;99.90;;;;;;4993131;28;20426;-71
2023/01/28 12:38:11;;;;;;;18.73;11.67;;;3.00;99.90;;;;;;4992136;28;20442;-71
2023/01/28 12:40:53;;;;;;;20.13;13.23;;;3.00;99.90;;;;;;4974686;28;20467;-70
2023/01/28 12:43:48;;;;;;;16.73;13.03;;;3.00;99.90;;;;;;4992184;28;20788;-71
2023/01/28 12:46:39;;;;;;;19.53;14.60;;;3.20;99.90;;;;;;4988159;28;20506;-70
2023/01/28 12:49:15;;;;;;;19.90;13.90;;;3.30;99.90;;;;;;4991896;28;20781;-70
2023/01/28 12:51:49;;;;;;;18.23;13.90;;;3.20;99.90;;;;;;4975033;28;20433;-70
2023/01/28 12:54:34;;;;;;;23.63;13.77;;;3.20;99.90;;;;;;4992249;28;20812;-70
2023/01/28 12:57:00;;;;;;;18.80;12.83;;;3.20;99.90;;;;;;4992275;28;20423;-70
2023/01/28 12:59:44;;;;;;;18.50;13.50;;;3.10;99.90;;;;;;4991551;28;20925;-69
2023/01/28 13:02:10;;;;;;;20.03;13.67;;;3.00;99.90;;;;;;4992118;28;20462;-70
2023/01/28 13:04:53;;;;;;;18.50;12.33;;;2.90;99.90;;;;;;4994806;28;20880;-70
2023/01/28 13:07:40;;;;;;;18.33;12.47;;;3.00;99.90;;;;;;4995816;28;20171;-70
2023/01/28 13:10:17;;;;;;;20.90;12.30;;;3.00;99.90;;;;;;4995027;28;21068;-69
2023/01/28 13:12:44;;;;;;;18.70;11.73;;;3.00;99.90;;;;;;4996016;28;20410;-70
2023/01/28 13:15:15;;;;;;;19.57;12.17;;;3.00;99.90;;;;;;4995975;28;20481;-70
2023/01/28 13:17:59;;;;;;;17.70;11.43;;;2.90;99.90;;;;;;4995749;28;20458;-69
2023/01/28 13:20:46;;;;;;;18.63;10.97;;;3.00;99.90;;;;;;4994927;28;20425;-70
2023/01/28 13:23:26;;;;;;;14.60;10.40;;;2.90;99.90;;;;;;4995698;28;20453;-70
2023/01/28 13:25:53;;;;;;;14.87;10.60;;;3.00;99.90;;;;;;4995360;28;20419;-70
2023/01/28 13:28:31;;;;;;;12.77;10.50;;;3.00;99.90;;;;;;4994269;28;20447;-69
2023/01/28 13:31:12;;;;;;;12.43;10.10;;;3.00;99.90;;;;;;4995230;28;20414;-70
2023/01/28 13:33:40;;;;;;;14.47;9.70;;;3.00;99.90;;;;;;4995287;28;20422;-70
2023/01/28 13:36:31;;;;;;;12.23;9.60;;;3.10;99.90;;;;;;4995173;28;20423;-70
2023/01/28 13:39:06;;;;;;;14.63;8.77;;;3.10;99.90;;;;;;4994849;28;20449;-70